sensor_id;sensor_type;location;lat;lon;timestamp;pressure;altitude;pressure_sealevel;temperature;humidity
26376;BME280;30544;42.196;24.336;2023-07-29T00:02:13;98832.09;;;24.83;40.71
26376;BME280;30544;42.196;24.336;2023-07-29T00:04:40;98849.59;;;24.85;40.28
26376;BME280;30544;42.196;24.336;2023-07-29T00:07:06;98855.13;;;24.81;40.63
26376;BME280;30544;42.196;24.336;2023-07-29T00:09:32;98849.59;;;24.73;40.46
26376;BME280;30544;42.196;24.336;2023-07-29T00:11:58;98846.63;;;24.69;40.73
26376;BME280;30544;42.196;24.336;2023-07-29T00:14:24;98847.78;;;24.68;40.77
26376;BME280;30544;42.196;24.336;2023-07-29T00:16:50;98847.78;;;24.68;40.71
26376;BME280;30544;42.196;24.336;2023-07-29T00:19:17;98845.91;;;24.72;40.79
26376;BME280;30544;42.196;24.336;2023-07-29T00:21:43;98843.56;;;24.41;41.45
26376;BME280;30544;42.196;24.336;2023-07-29T00:24:09;98835.66;;;24.47;41.45
26376;BME280;30544;42.196;24.336;2023-07-29T00:26:36;98836.31;;;24.52;41.31
26376;BME280;30544;42.196;24.336;2023-07-29T00:29:02;98839.72;;;24.58;41.07
26376;BME280;30544;42.196;24.336;2023-07-29T00:31:28;98836.66;;;24.63;41.08
26376;BME280;30544;42.196;24.336;2023-07-29T00:33:54;98838.19;;;24.60;41.17
26376;BME280;30544;42.196;24.336;2023-07-29T00:36:20;98836.97;;;24.49;41.24
26376;BME280;30544;42.196;24.336;2023-07-29T00:38:47;98845.81;;;24.48;41.46
26376;BME280;30544;42.196;24.336;2023-07-29T00:41:13;98844.94;;;24.35;41.65
26376;BME280;30544;42.196;24.336;2023-07-29T00:43:40;98847.84;;;24.26;41.93
26376;BME280;30544;42.196;24.336;2023-07-29T00:46:07;98837.34;;;24.27;41.96
26376;BME280;30544;42.196;24.336;2023-07-29T00:48:34;98831.75;;;24.39;41.89
26376;BME280;30544;42.196;24.336;2023-07-29T00:51:00;98825.81;;;24.32;42.04
26376;BME280;30544;42.196;24.336;2023-07-29T00:53:27;98827.59;;;24.16;42.72
26376;BME280;30544;42.196;24.336;2023-07-29T00:55:53;98832.84;;;24.26;42.42
26376;BME280;30544;42.196;24.336;2023-07-29T00:58:20;98836.72;;;24.21;42.52
26376;BME280;30544;42.196;24.336;2023-07-29T01:00:46;98830.22;;;24.00;42.98
26376;BME280;30544;42.196;24.336;2023-07-29T01:03:13;98840.06;;;24.03;43.43
26376;BME280;30544;42.196;24.336;2023-07-29T01:05:47;98829.34;;;24.08;43.08
26376;BME280;30544;42.196;24.336;2023-07-29T01:08:21;98830.22;;;24.00;43.11
26376;BME280;30544;42.196;24.336;2023-07-29T01:10:58;98839.06;;;23.57;43.66
26376;BME280;30544;42.196;24.336;2023-07-29T01:13:33;98831.88;;;23.59;43.88
26376;BME280;30544;42.196;24.336;2023-07-29T01:16:04;98833.00;;;23.37;44.37
26376;BME280;30544;42.196;24.336;2023-07-29T01:18:36;98835.66;;;23.34;45.03
26376;BME280;30544;42.196;24.336;2023-07-29T01:21:09;98834.19;;;23.28;44.78
26376;BME280;30544;42.196;24.336;2023-07-29T01:23:37;98835.84;;;23.29;45.02
26376;BME280;30544;42.196;24.336;2023-07-29T01:26:03;98835.06;;;23.20;45.19
26376;BME280;30544;42.196;24.336;2023-07-29T01:28:30;98834.88;;;23.25;45.09
26376;BME280;30544;42.196;24.336;2023-07-29T01:31:01;98838.41;;;23.22;45.30
26376;BME280;30544;42.196;24.336;2023-07-29T01:33:34;98839.72;;;23.24;45.05
26376;BME280;30544;42.196;24.336;2023-07-29T01:36:06;98837.38;;;23.26;45.34
26376;BME280;30544;42.196;24.336;2023-07-29T01:38:35;98838.81;;;23.32;45.44
26376;BME280;30544;42.196;24.336;2023-07-29T01:41:04;98843.41;;;23.46;45.36
26376;BME280;30544;42.196;24.336;2023-07-29T01:43:32;98839.75;;;23.45;44.98
26376;BME280;30544;42.196;24.336;2023-07-29T01:46:00;98831.13;;;23.41;45.20
26376;BME280;30544;42.196;24.336;2023-07-29T01:48:26;98835.53;;;23.51;44.98
26376;BME280;30544;42.196;24.336;2023-07-29T01:50:53;98840.22;;;23.47;44.83
26376;BME280;30544;42.196;24.336;2023-07-29T01:53:19;98841.84;;;23.27;45.47
26376;BME280;30544;42.196;24.336;2023-07-29T01:55:45;98843.44;;;23.07;45.41
26376;BME280;30544;42.196;24.336;2023-07-29T01:58:12;98840.06;;;23.14;45.31
26376;BME280;30544;42.196;24.336;2023-07-29T02:00:39;98844.00;;;23.30;45.35
26376;BME280;30544;42.196;24.336;2023-07-29T02:03:06;98846.81;;;23.30;45.51
26376;BME280;30544;42.196;24.336;2023-07-29T02:05:32;98854.69;;;23.25;45.62
26376;BME280;30544;42.196;24.336;2023-07-29T02:07:58;98858.06;;;23.09;45.46
26376;BME280;30544;42.196;24.336;2023-07-29T02:10:24;98861.78;;;23.01;46.12
26376;BME280;30544;42.196;24.336;2023-07-29T02:12:50;98841.09;;;23.09;45.95
26376;BME280;30544;42.196;24.336;2023-07-29T02:15:17;98851.38;;;23.23;45.88
26376;BME280;30544;42.196;24.336;2023-07-29T02:17:44;98857.31;;;23.30;45.63
26376;BME280;30544;42.196;24.336;2023-07-29T02:20:10;98854.13;;;23.31;45.45
26376;BME280;30544;42.196;24.336;2023-07-29T02:22:37;98850.00;;;23.29;45.67
26376;BME280;30544;42.196;24.336;2023-07-29T02:25:03;98850.81;;;23.29;45.61
26376;BME280;30544;42.196;24.336;2023-07-29T02:27:30;98853.41;;;23.43;45.62
26376;BME280;30544;42.196;24.336;2023-07-29T02:29:56;98854.13;;;23.31;45.69
26376;BME280;30544;42.196;24.336;2023-07-29T02:32:23;98853.78;;;23.33;45.45
26376;BME280;30544;42.196;24.336;2023-07-29T02:34:49;98858.47;;;23.29;45.58
26376;BME280;30544;42.196;24.336;2023-07-29T02:37:15;98853.13;;;23.36;45.30
26376;BME280;30544;42.196;24.336;2023-07-29T02:39:42;98858.59;;;23.41;45.66
26376;BME280;30544;42.196;24.336;2023-07-29T02:42:08;98864.84;;;23.17;45.95
26376;BME280;30544;42.196;24.336;2023-07-29T02:44:34;98867.38;;;23.19;46.22
26376;BME280;30544;42.196;24.336;2023-07-29T02:47:00;98861.94;;;23.34;45.88
26376;BME280;30544;42.196;24.336;2023-07-29T02:49:27;98856.59;;;23.41;45.46
26376;BME280;30544;42.196;24.336;2023-07-29T02:51:53;98868.03;;;23.45;45.66
26376;BME280;30544;42.196;24.336;2023-07-29T02:54:19;98867.28;;;23.36;45.79
26376;BME280;30544;42.196;24.336;2023-07-29T02:56:45;98868.47;;;23.26;45.56
26376;BME280;30544;42.196;24.336;2023-07-29T02:59:11;98870.94;;;23.36;45.63
26376;BME280;30544;42.196;24.336;2023-07-29T03:01:37;98876.75;;;23.40;45.70
26376;BME280;30544;42.196;24.336;2023-07-29T03:04:03;98880.91;;;23.34;45.55
26376;BME280;30544;42.196;24.336;2023-07-29T03:06:30;98884.63;;;23.26;46.16
26376;BME280;30544;42.196;24.336;2023-07-29T03:08:56;98889.31;;;23.22;45.68
26376;BME280;30544;42.196;24.336;2023-07-29T03:11:22;98890.91;;;23.31;45.72
26376;BME280;30544;42.196;24.336;2023-07-29T03:13:49;98886.41;;;23.30;45.45
26376;BME280;30544;42.196;24.336;2023-07-29T03:16:16;98885.53;;;23.09;46.36
26376;BME280;30544;42.196;24.336;2023-07-29T03:18:43;98896.34;;;22.98;46.56
26376;BME280;30544;42.196;24.336;2023-07-29T03:21:10;98886.06;;;23.02;46.17
26376;BME280;30544;42.196;24.336;2023-07-29T03:23:37;98894.88;;;22.92;46.81
26376;BME280;30544;42.196;24.336;2023-07-29T03:26:04;98891.72;;;23.02;46.45
26376;BME280;30544;42.196;24.336;2023-07-29T03:28:36;98888.53;;;23.04;46.18
26376;BME280;30544;42.196;24.336;2023-07-29T03:31:02;98890.69;;;22.98;46.55
26376;BME280;30544;42.196;24.336;2023-07-29T03:33:29;98896.75;;;22.88;46.87
26376;BME280;30544;42.196;24.336;2023-07-29T03:35:55;98895.56;;;22.89;46.70
26376;BME280;30544;42.196;24.336;2023-07-29T03:38:21;98903.03;;;23.02;46.51
26376;BME280;30544;42.196;24.336;2023-07-29T03:40:48;98909.50;;;22.94;46.93
26376;BME280;30544;42.196;24.336;2023-07-29T03:43:14;98900.72;;;22.87;46.86
26376;BME280;30544;42.196;24.336;2023-07-29T03:45:40;98900.28;;;22.42;47.89
26376;BME280;30544;42.196;24.336;2023-07-29T03:48:08;98903.28;;;22.19;48.01
26376;BME280;30544;42.196;24.336;2023-07-29T03:50:35;98911.56;;;22.33;48.35
26376;BME280;30544;42.196;24.336;2023-07-29T03:53:02;98912.56;;;22.55;47.39
26376;BME280;30544;42.196;24.336;2023-07-29T03:55:28;98919.34;;;22.62;47.62
26376;BME280;30544;42.196;24.336;2023-07-29T03:57:56;98920.47;;;23.04;47.06
26376;BME280;30544;42.196;24.336;2023-07-29T04:00:22;98922.13;;;23.52;45.91
26376;BME280;30544;42.196;24.336;2023-07-29T04:02:48;98917.00;;;24.05;45.46
26376;BME280;30544;42.196;24.336;2023-07-29T04:05:18;98915.38;;;24.45;43.05
26376;BME280;30544;42.196;24.336;2023-07-29T04:07:44;98916.22;;;24.79;43.15
26376;BME280;30544;42.196;24.336;2023-07-29T04:10:10;98913.50;;;25.15;41.44
26376;BME280;30544;42.196;24.336;2023-07-29T04:12:37;98910.59;;;25.36;40.26
26376;BME280;30544;42.196;24.336;2023-07-29T04:15:05;98911.47;;;25.73;39.53
26376;BME280;30544;42.196;24.336;2023-07-29T04:17:31;98916.53;;;25.92;38.82
26376;BME280;30544;42.196;24.336;2023-07-29T04:19:58;98922.41;;;26.24;38.90
26376;BME280;30544;42.196;24.336;2023-07-29T04:22:24;98916.81;;;26.67;38.97
26376;BME280;30544;42.196;24.336;2023-07-29T04:24:50;98927.00;;;26.96;38.36
26376;BME280;30544;42.196;24.336;2023-07-29T04:27:19;98919.28;;;27.09;37.09
26376;BME280;30544;42.196;24.336;2023-07-29T04:29:45;98930.09;;;27.19;37.19
26376;BME280;30544;42.196;24.336;2023-07-29T04:32:12;98925.81;;;27.25;36.85
26376;BME280;30544;42.196;24.336;2023-07-29T04:34:38;98928.31;;;27.58;36.02
26376;BME280;30544;42.196;24.336;2023-07-29T04:37:05;98930.06;;;27.79;36.24
26376;BME280;30544;42.196;24.336;2023-07-29T04:39:31;98928.13;;;28.18;35.41
26376;BME280;30544;42.196;24.336;2023-07-29T04:41:58;98927.91;;;28.07;35.46
26376;BME280;30544;42.196;24.336;2023-07-29T04:44:26;98929.97;;;28.42;34.68
26376;BME280;30544;42.196;24.336;2023-07-29T04:46:52;98930.34;;;28.98;34.23
26376;BME280;30544;42.196;24.336;2023-07-29T04:49:19;98933.56;;;29.39;33.84
26376;BME280;30544;42.196;24.336;2023-07-29T04:51:45;98926.41;;;29.94;32.63
26376;BME280;30544;42.196;24.336;2023-07-29T04:54:11;98935.88;;;30.25;32.70
26376;BME280;30544;42.196;24.336;2023-07-29T04:56:37;98943.81;;;30.39;32.55
26376;BME280;30544;42.196;24.336;2023-07-29T04:59:03;98929.66;;;30.46;31.60
26376;BME280;30544;42.196;24.336;2023-07-29T05:01:30;98930.34;;;30.39;30.41
26376;BME280;30544;42.196;24.336;2023-07-29T05:03:56;98928.88;;;30.49;30.01
26376;BME280;30544;42.196;24.336;2023-07-29T05:06:22;98920.28;;;30.75;30.36
26376;BME280;30544;42.196;24.336;2023-07-29T05:08:49;98929.47;;;30.92;29.39
26376;BME280;30544;42.196;24.336;2023-07-29T05:11:15;98939.28;;;29.85;30.70
26376;BME280;30544;42.196;24.336;2023-07-29T05:13:41;98933.50;;;29.13;32.16
26376;BME280;30544;42.196;24.336;2023-07-29T05:16:09;98943.03;;;28.82;32.83
26376;BME280;30544;42.196;24.336;2023-07-29T05:18:35;98937.25;;;28.39;33.38
26376;BME280;30544;42.196;24.336;2023-07-29T05:21:01;98931.53;;;28.24;33.15
26376;BME280;30544;42.196;24.336;2023-07-29T05:23:30;98941.06;;;27.96;33.61
26376;BME280;30544;42.196;24.336;2023-07-29T05:25:56;98945.66;;;27.85;34.30
26376;BME280;30544;42.196;24.336;2023-07-29T05:28:22;98942.53;;;27.58;34.72
26376;BME280;30544;42.196;24.336;2023-07-29T05:30:48;98945.38;;;27.43;34.38
26376;BME280;30544;42.196;24.336;2023-07-29T05:33:15;98951.25;;;27.34;35.59
26376;BME280;30544;42.196;24.336;2023-07-29T05:35:41;98954.59;;;27.08;34.90
26376;BME280;30544;42.196;24.336;2023-07-29T05:38:07;98952.22;;;27.10;35.38
26376;BME280;30544;42.196;24.336;2023-07-29T05:40:35;98955.59;;;27.00;35.87
26376;BME280;30544;42.196;24.336;2023-07-29T05:43:01;98951.00;;;26.83;35.68
26376;BME280;30544;42.196;24.336;2023-07-29T05:45:28;98956.63;;;26.67;36.33
26376;BME280;30544;42.196;24.336;2023-07-29T05:47:56;98954.09;;;26.50;36.84
26376;BME280;30544;42.196;24.336;2023-07-29T05:50:22;98961.88;;;26.53;36.78
26376;BME280;30544;42.196;24.336;2023-07-29T05:52:48;98956.25;;;26.41;37.05
26376;BME280;30544;42.196;24.336;2023-07-29T05:55:14;98962.91;;;26.21;37.51
26376;BME280;30544;42.196;24.336;2023-07-29T05:57:41;98938.25;;;26.37;36.94
26376;BME280;30544;42.196;24.336;2023-07-29T06:00:08;98949.84;;;26.44;37.63
26376;BME280;30544;42.196;24.336;2023-07-29T06:02:35;98943.81;;;26.46;37.42
26376;BME280;30544;42.196;24.336;2023-07-29T06:05:01;98943.59;;;26.38;37.31
26376;BME280;30544;42.196;24.336;2023-07-29T06:07:29;98936.53;;;26.60;38.26
26376;BME280;30544;42.196;24.336;2023-07-29T06:09:56;98950.28;;;26.58;37.90
26376;BME280;30544;42.196;24.336;2023-07-29T06:12:23;98941.06;;;26.49;37.71
26376;BME280;30544;42.196;24.336;2023-07-29T06:14:49;98943.50;;;26.63;37.82
26376;BME280;30544;42.196;24.336;2023-07-29T06:17:16;98932.91;;;26.76;38.06
26376;BME280;30544;42.196;24.336;2023-07-29T06:19:42;98945.81;;;26.45;37.73
26376;BME280;30544;42.196;24.336;2023-07-29T06:22:09;98933.16;;;26.71;38.30
26376;BME280;30544;42.196;24.336;2023-07-29T06:24:36;98942.69;;;26.62;37.72
26376;BME280;30544;42.196;24.336;2023-07-29T06:27:02;98938.13;;;26.46;37.10
26376;BME280;30544;42.196;24.336;2023-07-29T06:29:28;98940.56;;;26.59;36.80
26376;BME280;30544;42.196;24.336;2023-07-29T06:31:55;98941.44;;;26.76;37.00
26376;BME280;30544;42.196;24.336;2023-07-29T06:34:21;98941.09;;;26.77;36.79
26376;BME280;30544;42.196;24.336;2023-07-29T06:36:47;98937.97;;;26.82;37.17
26376;BME280;30544;42.196;24.336;2023-07-29T06:39:14;98929.66;;;26.89;37.02
26376;BME280;30544;42.196;24.336;2023-07-29T06:41:40;98936.13;;;27.02;36.75
26376;BME280;30544;42.196;24.336;2023-07-29T06:44:06;98930.66;;;27.09;36.39
26376;BME280;30544;42.196;24.336;2023-07-29T06:46:32;98935.75;;;27.04;35.51
26376;BME280;30544;42.196;24.336;2023-07-29T06:48:59;98928.00;;;27.16;34.82
26376;BME280;30544;42.196;24.336;2023-07-29T06:51:25;98923.78;;;27.26;34.52
26376;BME280;30544;42.196;24.336;2023-07-29T06:53:51;98918.56;;;27.28;34.51
26376;BME280;30544;42.196;24.336;2023-07-29T06:56:17;98920.75;;;27.35;34.90
26376;BME280;30544;42.196;24.336;2023-07-29T06:58:43;98919.84;;;27.31;34.74
26376;BME280;30544;42.196;24.336;2023-07-29T07:01:09;98921.88;;;27.46;34.69
26376;BME280;30544;42.196;24.336;2023-07-29T07:03:36;98919.56;;;27.51;34.83
26376;BME280;30544;42.196;24.336;2023-07-29T07:06:02;98910.47;;;27.46;34.65
26376;BME280;30544;42.196;24.336;2023-07-29T07:08:29;98917.28;;;27.57;34.33
26376;BME280;30544;42.196;24.336;2023-07-29T07:10:56;98912.44;;;27.73;34.63
26376;BME280;30544;42.196;24.336;2023-07-29T07:13:22;98911.25;;;27.74;33.85
26376;BME280;30544;42.196;24.336;2023-07-29T07:15:48;98906.44;;;27.78;34.08
26376;BME280;30544;42.196;24.336;2023-07-29T07:18:14;98904.06;;;27.80;34.11
26376;BME280;30544;42.196;24.336;2023-07-29T07:20:40;98900.00;;;27.81;34.03
26376;BME280;30544;42.196;24.336;2023-07-29T07:23:07;98900.47;;;27.83;34.29
26376;BME280;30544;42.196;24.336;2023-07-29T07:25:36;98899.16;;;27.97;33.56
26376;BME280;30544;42.196;24.336;2023-07-29T07:28:03;98906.06;;;27.96;33.92
26376;BME280;30544;42.196;24.336;2023-07-29T07:30:29;98897.06;;;27.94;33.51
26376;BME280;30544;42.196;24.336;2023-07-29T07:32:55;98903.09;;;28.08;33.57
26376;BME280;30544;42.196;24.336;2023-07-29T07:35:21;98889.28;;;28.10;33.27
26376;BME280;30544;42.196;24.336;2023-07-29T07:37:47;98892.03;;;28.22;33.37
26376;BME280;30544;42.196;24.336;2023-07-29T07:40:14;98901.59;;;28.14;33.35
26376;BME280;30544;42.196;24.336;2023-07-29T07:42:40;98899.16;;;28.32;32.71
26376;BME280;30544;42.196;24.336;2023-07-29T07:45:06;98890.91;;;28.27;32.98
26376;BME280;30544;42.196;24.336;2023-07-29T07:47:32;98885.16;;;28.42;32.38
26376;BME280;30544;42.196;24.336;2023-07-29T07:49:59;98893.34;;;28.44;31.65
26376;BME280;30544;42.196;24.336;2023-07-29T07:52:25;98880.09;;;28.55;32.31
26376;BME280;30544;42.196;24.336;2023-07-29T07:54:52;98876.59;;;28.62;31.94
26376;BME280;30544;42.196;24.336;2023-07-29T07:57:19;98879.00;;;28.60;32.19
26376;BME280;30544;42.196;24.336;2023-07-29T07:59:45;98879.13;;;28.67;31.74
26376;BME280;30544;42.196;24.336;2023-07-29T08:02:11;98877.28;;;28.74;32.69
26376;BME280;30544;42.196;24.336;2023-07-29T08:04:37;98867.13;;;28.77;32.61
26376;BME280;30544;42.196;24.336;2023-07-29T08:07:04;98867.19;;;28.81;32.40
26376;BME280;30544;42.196;24.336;2023-07-29T08:09:30;98862.19;;;28.93;32.17
26376;BME280;30544;42.196;24.336;2023-07-29T08:11:56;98861.84;;;28.98;32.08
26376;BME280;30544;42.196;24.336;2023-07-29T08:14:23;98858.84;;;29.11;31.52
26376;BME280;30544;42.196;24.336;2023-07-29T08:16:49;98849.00;;;29.08;30.70
26376;BME280;30544;42.196;24.336;2023-07-29T08:19:15;98854.22;;;29.25;31.11
26376;BME280;30544;42.196;24.336;2023-07-29T08:21:42;98848.66;;;29.36;32.05
26376;BME280;30544;42.196;24.336;2023-07-29T08:24:08;98842.41;;;29.27;30.41
26376;BME280;30544;42.196;24.336;2023-07-29T08:26:34;98852.94;;;29.46;31.37
26376;BME280;30544;42.196;24.336;2023-07-29T08:29:00;98853.31;;;29.44;30.37
26376;BME280;30544;42.196;24.336;2023-07-29T08:31:27;98847.28;;;29.49;31.07
26376;BME280;30544;42.196;24.336;2023-07-29T08:33:53;98845.00;;;29.58;30.86
26376;BME280;30544;42.196;24.336;2023-07-29T08:36:19;98852.38;;;29.59;30.61
26376;BME280;30544;42.196;24.336;2023-07-29T08:38:45;98847.88;;;29.58;30.30
26376;BME280;30544;42.196;24.336;2023-07-29T08:41:13;98852.38;;;29.59;30.39
26376;BME280;30544;42.196;24.336;2023-07-29T08:43:44;98846.31;;;29.64;30.99
26376;BME280;30544;42.196;24.336;2023-07-29T08:46:15;98837.09;;;29.75;30.47
26376;BME280;30544;42.196;24.336;2023-07-29T08:48:43;98834.78;;;29.84;30.43
26376;BME280;30544;42.196;24.336;2023-07-29T08:51:10;98828.38;;;29.90;30.96
26376;BME280;30544;42.196;24.336;2023-07-29T08:53:37;98831.22;;;29.90;29.71
26376;BME280;30544;42.196;24.336;2023-07-29T08:56:04;98824.34;;;29.95;30.59
26376;BME280;30544;42.196;24.336;2023-07-29T08:58:31;98822.09;;;30.08;31.10
26376;BME280;30544;42.196;24.336;2023-07-29T09:00:57;98824.28;;;30.18;30.29
26376;BME280;30544;42.196;24.336;2023-07-29T09:03:23;98811.16;;;30.13;29.15
26376;BME280;30544;42.196;24.336;2023-07-29T09:05:51;98804.38;;;30.25;28.90
26376;BME280;30544;42.196;24.336;2023-07-29T09:08:18;98805.22;;;30.29;29.20
26376;BME280;30544;42.196;24.336;2023-07-29T09:10:44;98804.41;;;30.29;28.74
26376;BME280;30544;42.196;24.336;2023-07-29T09:13:11;98790.72;;;30.45;29.15
26376;BME280;30544;42.196;24.336;2023-07-29T09:15:37;98787.84;;;30.45;29.18
26376;BME280;30544;42.196;24.336;2023-07-29T09:18:10;98794.97;;;30.58;29.40
26376;BME280;30544;42.196;24.336;2023-07-29T09:20:36;98783.63;;;30.65;29.83
26376;BME280;30544;42.196;24.336;2023-07-29T09:23:07;98782.91;;;30.75;29.52
26376;BME280;30544;42.196;24.336;2023-07-29T09:25:33;98781.34;;;30.81;29.99
26376;BME280;30544;42.196;24.336;2023-07-29T09:28:00;98787.13;;;30.89;28.94
26376;BME280;30544;42.196;24.336;2023-07-29T09:30:26;98780.56;;;30.88;28.85
26376;BME280;30544;42.196;24.336;2023-07-29T09:32:55;98789.47;;;30.76;28.80
26376;BME280;30544;42.196;24.336;2023-07-29T09:35:22;98782.22;;;30.89;28.80
26376;BME280;30544;42.196;24.336;2023-07-29T09:37:48;98779.00;;;30.94;28.73
26376;BME280;30544;42.196;24.336;2023-07-29T09:40:15;98777.81;;;30.99;27.62
26376;BME280;30544;42.196;24.336;2023-07-29T09:42:47;98770.91;;;31.03;27.77
26376;BME280;30544;42.196;24.336;2023-07-29T09:45:19;98769.66;;;31.01;28.40
26376;BME280;30544;42.196;24.336;2023-07-29T09:47:46;98770.94;;;31.07;28.21
26376;BME280;30544;42.196;24.336;2023-07-29T09:50:12;98772.22;;;31.09;28.53
26376;BME280;30544;42.196;24.336;2023-07-29T09:52:38;98767.72;;;31.12;28.65
26376;BME280;30544;42.196;24.336;2023-07-29T09:55:05;98772.34;;;31.24;28.45
26376;BME280;30544;42.196;24.336;2023-07-29T09:57:32;98777.56;;;31.14;28.23
26376;BME280;30544;42.196;24.336;2023-07-29T09:59:58;98776.75;;;31.14;27.72
26376;BME280;30544;42.196;24.336;2023-07-29T10:02:24;98767.91;;;31.30;28.78
26376;BME280;30544;42.196;24.336;2023-07-29T10:04:54;98763.03;;;31.34;27.05
26376;BME280;30544;42.196;24.336;2023-07-29T10:07:21;98761.81;;;31.38;27.67
26376;BME280;30544;42.196;24.336;2023-07-29T10:09:48;98754.47;;;31.41;28.03
26376;BME280;30544;42.196;24.336;2023-07-29T10:12:17;98767.25;;;31.54;29.22
26376;BME280;30544;42.196;24.336;2023-07-29T10:14:46;98766.44;;;31.54;28.03
26376;BME280;30544;42.196;24.336;2023-07-29T10:17:15;98766.44;;;31.57;27.59
26376;BME280;30544;42.196;24.336;2023-07-29T10:19:41;98755.03;;;31.61;27.76
26376;BME280;30544;42.196;24.336;2023-07-29T10:22:11;98753.91;;;31.72;27.80
26376;BME280;30544;42.196;24.336;2023-07-29T10:24:40;98760.44;;;31.73;28.03
26376;BME280;30544;42.196;24.336;2023-07-29T10:27:10;98757.94;;;31.71;26.79
26376;BME280;30544;42.196;24.336;2023-07-29T10:29:41;98746.91;;;31.70;27.40
26376;BME280;30544;42.196;24.336;2023-07-29T10:32:11;98744.13;;;31.81;27.78
26376;BME280;30544;42.196;24.336;2023-07-29T10:34:37;98744.56;;;31.86;27.37
26376;BME280;30544;42.196;24.336;2023-07-29T10:37:05;98733.91;;;31.83;27.41
26376;BME280;30544;42.196;24.336;2023-07-29T10:39:38;98729.84;;;31.91;27.75
26376;BME280;30544;42.196;24.336;2023-07-29T10:42:06;98729.88;;;31.95;28.59
26376;BME280;30544;42.196;24.336;2023-07-29T10:44:48;98720.03;;;31.92;27.42
26376;BME280;30544;42.196;24.336;2023-07-29T10:47:17;98722.50;;;31.97;27.53
26376;BME280;30544;42.196;24.336;2023-07-29T10:49:43;98716.38;;;32.06;26.67
26376;BME280;30544;42.196;24.336;2023-07-29T10:52:13;98714.78;;;32.09;27.47
26376;BME280;30544;42.196;24.336;2023-07-29T10:54:42;98705.78;;;32.14;27.49
26376;BME280;30544;42.196;24.336;2023-07-29T10:57:12;98714.81;;;32.16;26.91
26376;BME280;30544;42.196;24.336;2023-07-29T10:59:39;98707.44;;;32.22;28.03
26376;BME280;30544;42.196;24.336;2023-07-29T11:02:14;98695.13;;;32.18;27.19
26376;BME280;30544;42.196;24.336;2023-07-29T11:04:51;98698.50;;;32.27;27.38
26376;BME280;30544;42.196;24.336;2023-07-29T11:07:27;98696.50;;;32.45;27.13
26376;BME280;30544;42.196;24.336;2023-07-29T11:10:01;98691.56;;;32.49;26.34
26376;BME280;30544;42.196;24.336;2023-07-29T11:12:37;98687.47;;;32.47;26.32
26376;BME280;30544;42.196;24.336;2023-07-29T11:15:11;98691.56;;;32.49;26.95
26376;BME280;30544;42.196;24.336;2023-07-29T11:17:39;98685.84;;;32.53;25.77
26376;BME280;30544;42.196;24.336;2023-07-29T11:20:07;98686.25;;;32.58;26.91
26376;BME280;30544;42.196;24.336;2023-07-29T11:22:34;98687.09;;;32.63;26.88
26376;BME280;30544;42.196;24.336;2023-07-29T11:25:00;98681.72;;;32.57;25.90
26376;BME280;30544;42.196;24.336;2023-07-29T11:27:26;98676.44;;;32.67;26.41
26376;BME280;30544;42.196;24.336;2023-07-29T11:29:56;98676.84;;;32.72;26.59
26376;BME280;30544;42.196;24.336;2023-07-29T11:32:23;98685.06;;;32.77;26.70
26376;BME280;30544;42.196;24.336;2023-07-29T11:34:50;98678.47;;;32.70;25.70
26376;BME280;30544;42.196;24.336;2023-07-29T11:37:17;98670.28;;;32.79;25.02
26376;BME280;30544;42.196;24.336;2023-07-29T11:39:44;98666.19;;;32.90;26.46
26376;BME280;30544;42.196;24.336;2023-07-29T11:42:11;98667.03;;;32.91;25.46
26376;BME280;30544;42.196;24.336;2023-07-29T11:44:37;98660.88;;;32.85;25.89
26376;BME280;30544;42.196;24.336;2023-07-29T11:47:06;98658.00;;;33.03;25.58
26376;BME280;30544;42.196;24.336;2023-07-29T11:49:32;98644.88;;;33.09;25.09
26376;BME280;30544;42.196;24.336;2023-07-29T11:51:59;98654.72;;;33.08;24.75
26376;BME280;30544;42.196;24.336;2023-07-29T11:54:25;98658.41;;;33.12;25.28
26376;BME280;30544;42.196;24.336;2023-07-29T11:56:52;98643.22;;;33.26;24.92
26376;BME280;30544;42.196;24.336;2023-07-29T11:59:19;98635.44;;;33.34;25.26
26376;BME280;30544;42.196;24.336;2023-07-29T12:01:45;98641.56;;;33.36;24.70
26376;BME280;30544;42.196;24.336;2023-07-29T12:04:12;98634.97;;;33.49;23.26
26376;BME280;30544;42.196;24.336;2023-07-29T12:06:39;98629.19;;;33.60;25.57
26376;BME280;30544;42.196;24.336;2023-07-29T12:09:05;98625.88;;;33.65;24.65
26376;BME280;30544;42.196;24.336;2023-07-29T12:11:33;98625.88;;;33.65;23.97
26376;BME280;30544;42.196;24.336;2023-07-29T12:13:59;98620.47;;;33.82;24.11
26376;BME280;30544;42.196;24.336;2023-07-29T12:16:26;98616.78;;;33.85;24.41
26376;BME280;30544;42.196;24.336;2023-07-29T12:18:52;98620.00;;;34.01;25.03
26376;BME280;30544;42.196;24.336;2023-07-29T12:21:19;98616.69;;;34.02;24.95
26376;BME280;30544;42.196;24.336;2023-07-29T12:23:45;98610.91;;;34.13;24.28
26376;BME280;30544;42.196;24.336;2023-07-29T12:26:11;98614.47;;;34.31;23.61
26376;BME280;30544;42.196;24.336;2023-07-29T12:28:38;98615.66;;;34.45;23.42
26376;BME280;30544;42.196;24.336;2023-07-29T12:31:07;98603.25;;;34.51;23.82
26376;BME280;30544;42.196;24.336;2023-07-29T12:33:35;98599.44;;;34.65;23.61
26376;BME280;30544;42.196;24.336;2023-07-29T12:36:01;98597.81;;;34.64;22.45
26376;BME280;30544;42.196;24.336;2023-07-29T12:38:29;98599.84;;;34.67;22.85
26376;BME280;30544;42.196;24.336;2023-07-29T12:40:55;98607.16;;;34.75;22.83
26376;BME280;30544;42.196;24.336;2023-07-29T12:43:21;98601.75;;;34.84;22.81
26376;BME280;30544;42.196;24.336;2023-07-29T12:45:49;98602.16;;;34.86;21.62
26376;BME280;30544;42.196;24.336;2023-07-29T12:48:16;98600.41;;;35.00;21.94
26376;BME280;30544;42.196;24.336;2023-07-29T12:50:42;98599.88;;;35.08;21.53